Time;durP1;ratioP1;P1;durP2;ratioP2;P2;SDS_P1;SDS_P2;PMS_P1;PMS_P2;Temp;Humidity;BMP_temperature;BMP_pressure;BME280_temperature;BME280_humidity;BME280_pressure;Samples;Min_cycle;Max_cycle;Signal;HPM_P1;HPM_P2
2024/01/23 00:00:53;;;;;;;;;;;6.90;1.00;;;;;;5036775;28;20299;-74
2024/01/23 00:03:19;;;;;;;;;;;6.90;1.00;;;;;;5038158;28;19909;-74
2024/01/23 00:05:56;;;;;;;;;;;6.90;1.00;;;;;;5051365;28;19913;-75
2024/01/23 00:08:32;;;;;;;;;;;6.90;1.00;;;;;;5038134;28;19905;-74
2024/01/23 00:11:02;;;;;;;;;;;7.00;1.00;;;;;;5046291;28;19909;-74
2024/01/23 00:13:32;;;;;;;;;;;7.00;1.00;;;;;;5037934;28;19905;-74
2024/01/23 00:16:08;;;;;;;;;;;7.00;1.00;;;;;;5044112;28;19905;-74
2024/01/23 00:18:44;;;;;;;;;;;6.90;1.00;;;;;;5054897;28;19916;-74
2024/01/23 00:21:20;;;;;;;;;;;7.00;1.00;;;;;;5043001;28;19908;-74
2024/01/23 00:23:45;;;;;;;;;;;7.00;1.00;;;;;;5040721;28;19908;-74
2024/01/23 00:29:15;;;;;;;;;;;7.10;1.00;;;;;;5048546;28;19911;-81
2024/01/23 00:34:44;;;;;;;;;;;7.10;1.00;;;;;;5047526;28;19912;-80
2024/01/23 00:37:20;;;;;;;;;;;7.10;1.00;;;;;;5047719;28;20375;-81
2024/01/23 00:39:46;;;;;;;;;;;7.10;1.00;;;;;;5044026;28;20007;-81
2024/01/23 00:42:37;;;;;;;;;;;7.10;1.00;;;;;;5056299;28;19920;-81
2024/01/23 00:45:08;;;;;;;;;;;7.10;1.00;;;;;;5041818;28;19909;-80
2024/01/23 00:47:33;;;;;;;;;;;7.10;1.00;;;;;;5037296;28;19916;-81
2024/01/23 00:49:59;;;;;;;;;;;7.10;1.00;;;;;;5042895;28;19905;-80
2024/01/23 00:52:25;;;;;;;;;;;7.10;1.00;;;;;;5037379;28;19913;-81
2024/01/23 00:54:50;;;;;;;;;;;7.10;1.00;;;;;;5051672;28;19965;-80
2024/01/23 00:57:44;;;;;;;;;;;7.10;1.00;;;;;;5044999;28;19928;-81
2024/01/23 01:06:15;;;;;;;;;;;7.10;1.00;;;;;;5045329;28;19927;-81
2024/01/23 01:14:47;;;;;;;;;;;7.00;1.00;;;;;;5054409;28;20370;-81
2024/01/23 01:20:16;;;;;;;;;;;6.90;1.00;;;;;;5055355;28;19915;-81
2024/01/23 01:25:45;;;;;;;;;;;6.80;1.00;;;;;;5051574;28;20284;-81
2024/01/23 01:34:16;;;;;;;;;;;6.60;1.00;;;;;;5045495;28;19912;-80
2024/01/23 01:39:44;;;;;;;;;;;6.60;1.00;;;;;;5046151;28;19963;-74
2024/01/23 01:42:10;;;;;;;;;;;6.60;1.00;;;;;;5042013;28;19916;-74
2024/01/23 01:44:35;;;;;;;;;;;6.60;1.00;;;;;;5041750;28;19963;-74
2024/01/23 01:47:02;;;;;;;;;;;6.60;1.00;;;;;;5041956;28;20276;-74
2024/01/23 01:49:32;;;;;;;;;;;6.60;1.00;;;;;;5040444;28;19916;-74
2024/01/23 01:51:58;;;;;;;;;;;6.60;1.00;;;;;;5039294;28;19912;-74
2024/01/23 01:54:26;;;;;;;;;;;6.70;1.00;;;;;;5046467;28;19908;-74
2024/01/23 01:57:02;;;;;;;;;;;6.70;1.00;;;;;;5040162;28;20317;-74
2024/01/23 01:59:38;;;;;;;;;;;6.80;1.00;;;;;;5044396;28;19913;-74
2024/01/23 02:02:05;;;;;;;;;;;6.80;1.00;;;;;;5055723;28;19905;-74
2024/01/23 02:04:31;;;;;;;;;;;6.80;1.00;;;;;;5056075;28;19915;-74
2024/01/23 02:07:02;;;;;;;;;;;6.70;1.00;;;;;;5036053;28;19999;-74
2024/01/23 02:12:30;;;;;;;;;;;6.70;1.00;;;;;;5035737;28;19912;-81
2024/01/23 02:15:32;;;;;;;;;;;6.60;1.00;;;;;;5047901;28;19909;-81
2024/01/23 02:21:01;;;;;;;;;;;6.60;1.00;;;;;;5048475;28;19916;-81
2024/01/23 02:26:32;;;;;;;;;;;6.60;1.00;;;;;;5055805;28;20000;-74
2024/01/23 02:29:15;;;;;;;;;;;6.60;1.00;;;;;;5052549;28;19909;-74
2024/01/23 02:31:41;;;;;;;;;;;6.60;1.00;;;;;;5043482;28;19915;-75
2024/01/23 02:34:07;;;;;;;;;;;6.50;1.00;;;;;;5037797;28;19991;-74
2024/01/23 02:36:40;;;;;;;;;;;6.50;1.00;;;;;;5055373;28;19935;-75
2024/01/23 02:39:07;;;;;;;;;;;6.40;1.00;;;;;;5037527;28;19999;-74
2024/01/23 02:41:32;;;;;;;;;;;6.40;1.00;;;;;;5044849;28;19913;-74
2024/01/23 02:43:58;;;;;;;;;;;6.40;1.00;;;;;;5039730;28;19962;-74
2024/01/23 02:46:40;;;;;;;;;;;6.40;1.00;;;;;;5049589;28;19912;-74
2024/01/23 02:49:14;;;;;;;;;;;6.40;1.00;;;;;;5044605;28;19932;-74
2024/01/23 02:51:44;;;;;;;;;;;6.30;1.00;;;;;;5052514;28;19954;-74
2024/01/23 02:54:09;;;;;;;;;;;6.30;1.00;;;;;;5055063;28;19943;-75
2024/01/23 02:59:38;;;;;;;;;;;6.30;1.00;;;;;;5054364;28;20272;-80
2024/01/23 03:08:09;;;;;;;;;;;6.10;1.00;;;;;;5034533;28;20031;-80
2024/01/23 03:10:35;;;;;;;;;;;6.10;1.00;;;;;;5044257;28;19967;-75
2024/01/23 03:13:00;;;;;;;;;;;6.10;1.00;;;;;;5039321;28;20015;-75
2024/01/23 03:15:26;;;;;;;;;;;6.10;1.00;;;;;;5034911;28;19905;-74
2024/01/23 03:18:08;;;;;;;;;;;6.10;1.00;;;;;;5038578;28;19927;-74
2024/01/23 03:20:34;;;;;;;;;;;6.10;1.00;;;;;;5049834;28;19909;-74
2024/01/23 03:23:02;;;;;;;;;;;6.10;1.00;;;;;;5068948;28;20033;-74
2024/01/23 03:25:27;;;;;;;;;;;6.10;1.00;;;;;;5049040;28;19905;-75
2024/01/23 03:30:56;;;;;;;;;;;6.00;1.00;;;;;;5037375;28;20326;-80
2024/01/23 03:39:28;;;;;;;;;;;5.90;1.00;;;;;;5043646;28;19978;-80
2024/01/23 03:41:53;;;;;;;;;;;5.80;1.00;;;;;;5044709;28;20403;-80
2024/01/23 03:47:38;;;;;;;;;;;5.90;1.00;;;;;;5045933;28;19916;-80
2024/01/23 03:56:09;;;;;;;;;;;6.00;1.00;;;;;;5068002;28;20600;-75
2024/01/23 03:58:35;;;;;;;;;;;6.00;1.00;;;;;;5039586;28;19960;-74
2024/01/23 04:01:08;;;;;;;;;;;6.20;1.00;;;;;;5042767;28;19909;-74
2024/01/23 04:03:38;;;;;;;;;;;6.20;1.00;;;;;;5034049;28;20311;-74
2024/01/23 04:06:03;;;;;;;;;;;6.30;1.00;;;;;;5034154;28;19905;-73
2024/01/23 04:08:44;;;;;;;;;;;6.40;1.00;;;;;;5034556;28;19999;-73
2024/01/23 04:14:12;;;;;;;;;;;6.40;1.00;;;;;;5035144;28;19994;-80
2024/01/23 04:19:41;;;;;;;;;;;6.40;1.00;;;;;;5035032;28;19962;-79
2024/01/23 04:22:20;;;;;;;;;;;6.40;1.00;;;;;;5044827;28;19995;-81
2024/01/23 04:27:50;;;;;;;;;;;6.30;1.00;;;;;;5047385;28;19912;-75
2024/01/23 04:30:20;;;;;;;;;;;6.20;1.00;;;;;;5033485;28;20486;-74
2024/01/23 04:32:56;;;;;;;;;;;6.20;1.00;;;;;;5040864;28;19908;-74
2024/01/23 04:35:26;;;;;;;;;;;6.10;1.00;;;;;;5033998;28;20287;-75
2024/01/23 04:37:52;;;;;;;;;;;6.10;1.00;;;;;;5033807;28;19945;-74
2024/01/23 04:40:18;;;;;;;;;;;6.10;1.00;;;;;;5041445;28;20314;-74
2024/01/23 04:42:44;;;;;;;;;;;6.00;1.00;;;;;;5053795;28;19913;-74
2024/01/23 04:45:10;;;;;;;;;;;5.90;1.00;;;;;;5044535;28;20288;-75
2024/01/23 04:47:35;;;;;;;;;;;5.90;1.00;;;;;;5044619;28;19915;-74
2024/01/23 04:50:02;;;;;;;;;;;5.80;1.00;;;;;;5048232;28;20000;-74
2024/01/23 04:52:56;;;;;;;;;;;5.70;1.00;;;;;;5037228;28;20356;-75
2024/01/23 04:55:44;;;;;;;;;;;5.70;1.00;;;;;;5057232;28;19905;-74
2024/01/23 04:58:09;;;;;;;;;;;5.70;1.00;;;;;;5045401;28;19909;-81
2024/01/23 05:03:38;;;;;;;;;;;5.80;1.00;;;;;;5048549;28;20379;-80
2024/01/23 05:06:08;;;;;;;;;;;5.70;1.00;;;;;;5036730;28;19983;-80
2024/01/23 05:11:36;;;;;;;;;;;5.70;1.00;;;;;;5048168;28;19990;-80
2024/01/23 05:14:03;;;;;;;;;;;5.70;1.00;;;;;;5047367;28;20311;-80
2024/01/23 05:22:44;;;;;;;;;;;5.60;1.00;;;;;;5052051;28;20348;-81
2024/01/23 05:28:26;;;;;;;;;;;5.50;1.00;;;;;;5036591;28;19916;-77
2024/01/23 05:31:14;;;;;;;;;;;5.40;1.00;;;;;;5039413;28;19959;-73
2024/01/23 05:33:44;;;;;;;;;;;5.40;1.00;;;;;;5036392;28;19916;-73
2024/01/23 05:36:09;;;;;;;;;;;5.30;1.00;;;;;;5040859;28;19916;-74
2024/01/23 05:38:35;;;;;;;;;;;5.30;1.00;;;;;;5047174;28;19920;-74
2024/01/23 05:41:01;;;;;;;;;;;5.30;1.00;;;;;;5049895;28;19909;-74
2024/01/23 05:46:29;;;;;;;;;;;5.40;1.00;;;;;;5042374;28;19916;-81
2024/01/23 05:55:04;;;;;;;;;;;5.40;1.00;;;;;;5037598;28;20020;-81
2024/01/23 05:57:30;;;;;;;;;;;5.40;1.00;;;;;;5041428;28;20311;-74
2024/01/23 05:59:56;;;;;;;;;;;5.40;1.00;;;;;;5040699;28;19921;-73
2024/01/23 06:02:26;;;;;;;;;;;5.40;1.00;;;;;;5052139;28;19913;-73
2024/01/23 06:04:56;;;;;;;;;;;5.40;1.00;;;;;;5051571;28;19917;-73
2024/01/23 06:07:21;;;;;;;;;;;5.30;1.00;;;;;;5047851;28;20361;-74
2024/01/23 06:09:50;;;;;;;;;;;5.30;1.00;;;;;;5045801;28;19943;-73
2024/01/23 06:12:20;;;;;;;;;;;5.30;1.00;;;;;;5043776;28;19963;-81
2024/01/23 06:23:55;;;;;;;;;;;5.20;1.00;;;;;;5050209;28;20136;-80
2024/01/23 06:32:26;;;;;;;;;;;5.50;1.00;;;;;;5041011;28;19931;-81
2024/01/23 06:40:58;;;;;;;;;;;5.70;1.00;;;;;;5039005;28;19920;-81
2024/01/23 06:46:56;;;;;;;;;;;5.70;1.00;;;;;;5046301;28;19962;-80
2024/01/23 06:52:24;;;;;;;;;;;5.70;1.00;;;;;;5035086;28;19912;-80
2024/01/23 06:54:50;;;;;;;;;;;5.60;1.00;;;;;;5043873;28;19908;-81
2024/01/23 06:57:15;;;;;;;;;;;5.60;1.00;;;;;;5042523;28;20280;-81
2024/01/23 06:59:44;;;;;;;;;;;5.70;1.00;;;;;;5051124;28;19960;-73
2024/01/23 07:02:10;;;;;;;;;;;5.80;1.00;;;;;;5050147;28;20368;-73
2024/01/23 07:04:36;;;;;;;;;;;5.80;1.00;;;;;;5039377;28;20363;-73
2024/01/23 07:07:02;;;;;;;;;;;5.80;1.00;;;;;;5043305;28;19909;-72
2024/01/23 07:09:28;;;;;;;;;;;5.90;1.00;;;;;;5042477;28;19916;-72
2024/01/23 07:11:56;;;;;;;;;;;6.00;1.00;;;;;;5044687;28;20426;-73
2024/01/23 07:23:33;;;;;;;;;;;6.10;1.00;;;;;;5053124;28;20015;-80
2024/01/23 07:32:05;;;;;;;;;;;6.10;1.00;;;;;;5048554;28;19912;-82
2024/01/23 07:34:32;;;;;;;;;;;6.20;1.00;;;;;;5049211;28;19916;-81
2024/01/23 07:43:04;;;;;;;;;;;6.60;1.00;;;;;;5053899;28;19963;-72
2024/01/23 07:45:29;;;;;;;;;;;6.60;1.00;;;;;;5044995;28;19912;-73
2024/01/23 07:47:55;;;;;;;;;;;6.60;1.00;;;;;;5047818;28;19913;-72
2024/01/23 07:50:21;;;;;;;;;;;6.60;1.00;;;;;;5048998;28;19908;-72
2024/01/23 07:52:50;;;;;;;;;;;6.60;1.00;;;;;;5045682;28;19905;-73
2024/01/23 07:55:16;;;;;;;;;;;6.60;1.00;;;;;;5039322;28;19909;-73
2024/01/23 07:57:41;;;;;;;;;;;6.60;1.00;;;;;;5049308;28;19904;-72
2024/01/23 08:00:07;;;;;;;;;;;6.50;1.00;;;;;;5052409;28;19919;-73
2024/01/23 08:02:33;;;;;;;;;;;6.50;1.00;;;;;;5040722;28;19955;-73
2024/01/23 08:04:59;;;;;;;;;;;6.60;1.00;;;;;;5052635;28;20003;-72
2024/01/23 08:07:25;;;;;;;;;;;6.60;1.00;;;;;;5045565;28;20603;-72
2024/01/23 08:09:56;;;;;;;;;;;6.70;1.00;;;;;;5040842;28;19916;-73
2024/01/23 08:12:21;;;;;;;;;;;6.70;1.00;;;;;;5034053;28;19916;-73
2024/01/23 08:14:50;;;;;;;;;;;6.80;1.00;;;;;;5042576;28;19909;-72
2024/01/23 08:17:15;;;;;;;;;;;6.80;1.00;;;;;;5036596;28;19920;-73
2024/01/23 08:19:41;;;;;;;;;;;6.80;1.00;;;;;;5051306;28;19909;-73
2024/01/23 08:22:08;;;;;;;;;;;6.80;1.00;;;;;;5055113;28;20367;-73
2024/01/23 08:24:38;;;;;;;;;;;6.90;1.00;;;;;;5043828;28;20475;-73
2024/01/23 08:27:04;;;;;;;;;;;6.90;1.00;;;;;;5034449;28;19951;-73
2024/01/23 08:29:29;;;;;;;;;;;7.00;1.00;;;;;;5042263;28;19995;-73
2024/01/23 08:31:56;;;;;;;;;;;7.00;1.00;;;;;;5056753;28;19923;-73
2024/01/23 08:34:22;;;;;;;;;;;7.00;1.00;;;;;;5056065;28;19905;-73
2024/01/23 08:36:48;;;;;;;;;;;7.50;1.00;;;;;;5049214;28;19916;-73
2024/01/23 08:39:14;;;;;;;;;;;7.00;1.00;;;;;;5050250;28;19908;-74
2024/01/23 08:41:40;;;;;;;;;;;7.10;1.00;;;;;;5050018;28;19913;-73
2024/01/23 08:47:08;;;;;;;;;;;7.20;1.00;;;;;;5055467;28;19912;-81
2024/01/23 08:49:34;;;;;;;;;;;7.20;1.00;;;;;;5054036;28;19908;-81
2024/01/23 08:52:02;;;;;;;;;;;7.20;1.00;;;;;;5054891;28;19905;-81
2024/01/23 08:54:33;;;;;;;;;;;7.20;1.00;;;;;;5052015;28;19909;-80
2024/01/23 08:57:00;;;;;;;;;;;7.20;1.00;;;;;;5056485;28;19991;-81
2024/01/23 08:59:38;;;;;;;;;;;7.20;1.00;;;;;;5044546;28;19913;-72
2024/01/23 09:02:04;;;;;;;;;;;7.30;1.00;;;;;;5051627;28;19909;-73
2024/01/23 09:04:30;;;;;;;;;;;7.40;1.00;;;;;;5040561;28;20349;-73
2024/01/23 09:06:55;;;;;;;;;;;7.40;1.00;;;;;;5054792;28;19915;-73
2024/01/23 09:09:26;;;;;;;;;;;7.30;1.00;;;;;;5046374;28;19916;-73
2024/01/23 09:12:08;;;;;;;;;;;7.40;1.00;;;;;;5048368;28;19916;-73
2024/01/23 09:14:34;;;;;;;;;;;7.40;1.00;;;;;;5049006;28;19909;-72
2024/01/23 09:17:00;;;;;;;;;;;7.40;1.00;;;;;;5040887;28;19908;-74
2024/01/23 09:19:26;;;;;;;;;;;7.50;1.00;;;;;;5054622;28;19962;-74
2024/01/23 09:21:53;;;;;;;;;;;7.50;1.00;;;;;;5052632;28;19909;-74
2024/01/23 09:24:19;;;;;;;;;;;7.60;1.00;;;;;;5047338;28;19958;-74
2024/01/23 09:26:50;;;;;;;;;;;7.50;1.00;;;;;;5053228;28;19909;-74
2024/01/23 09:29:16;;;;;;;;;;;7.50;1.00;;;;;;5047519;28;19915;-81
2024/01/23 09:31:45;;;;;;;;;;;7.50;1.00;;;;;;5047042;28;20039;-80
2024/01/23 09:34:14;;;;;;;;;;;7.50;1.00;;;;;;5044426;28;19909;-84
2024/01/23 09:39:43;;;;;;;;;;;7.50;1.00;;;;;;5052628;28;19919;-81
2024/01/23 09:45:44;;;;;;;;;;;7.70;1.00;;;;;;5052751;28;19959;-79
2024/01/23 09:51:32;;;;;;;;;;;7.90;1.00;;;;;;5043033;28;19916;-80
2024/01/23 09:57:08;;;;;;;;;;;7.90;1.00;;;;;;5045552;28;19928;-80
2024/01/23 09:59:34;;;;;;;;;;;8.00;1.00;;;;;;5044315;28;19919;-74
2024/01/23 10:01:59;;;;;;;;;;;8.10;1.00;;;;;;5054503;28;19905;-74
2024/01/23 10:04:28;;;;;;;;;;;8.20;1.00;;;;;;5050704;28;19912;-74
2024/01/23 10:06:54;;;;;;;;;;;8.20;1.00;;;;;;5047505;28;19944;-73
2024/01/23 10:09:26;;;;;;;;;;;8.30;1.00;;;;;;5047601;28;19957;-74
2024/01/23 10:11:57;;;;;;;;;;;8.30;1.00;;;;;;5047239;28;19909;-77
2024/01/23 10:17:25;;;;;;;;;;;8.40;1.00;;;;;;5051404;28;19912;-81
2024/01/23 10:23:09;;;;;;;;;;;8.50;1.00;;;;;;5040346;28;19959;-80
2024/01/23 10:31:41;;;;;;;;;;;8.70;1.00;;;;;;5044675;28;20286;-74
2024/01/23 10:34:10;;;;;;;;;;;8.60;1.00;;;;;;5048866;28;19905;-76
2024/01/23 10:36:41;;;;;;;;;;;8.60;1.00;;;;;;5052216;28;19909;-76
2024/01/23 10:39:08;;;;;;;;;;;8.70;1.00;;;;;;5049343;28;19920;-72
2024/01/23 10:41:34;;;;;;;;;;;8.70;1.00;;;;;;5053794;28;19913;-73
2024/01/23 10:44:01;;;;;;;;;;;9.00;1.00;;;;;;5051373;28;19919;-74
2024/01/23 10:46:33;;;;;;;;;;;8.70;1.00;;;;;;5039100;28;19908;-74
2024/01/23 10:48:59;;;;;;;;;;;8.60;1.00;;;;;;5055079;28;20372;-74
2024/01/23 10:51:35;;;;;;;;;;;8.60;1.00;;;;;;5040509;28;19945;-74
2024/01/23 10:54:12;;;;;;;;;;;8.50;1.00;;;;;;5039001;28;19955;-74
2024/01/23 10:56:57;;;;;;;;;;;8.50;1.00;;;;;;5043257;28;19905;-74
2024/01/23 11:02:46;;;;;;;;;;;8.50;1.00;;;;;;5040556;28;19919;-80
2024/01/23 11:08:21;;;;;;;;;;;8.60;1.00;;;;;;5054926;28;19911;-80
2024/01/23 11:14:15;;;;;;;;;;;8.80;1.00;;;;;;5050028;28;19988;-80
2024/01/23 11:16:41;;;;;;;;;;;8.80;1.00;;;;;;5037692;28;19904;-74
2024/01/23 11:19:16;;;;;;;;;;;8.80;1.00;;;;;;5054436;28;20356;-74
2024/01/23 11:21:41;;;;;;;;;;;8.90;1.00;;;;;;5041050;28;19912;-73
2024/01/23 11:24:14;;;;;;;;;;;8.90;1.00;;;;;;5042267;28;19905;-74
2024/01/23 11:32:46;;;;;;;;;;;9.00;1.00;;;;;;5046431;28;19951;-90
2024/01/23 11:35:12;;;;;;;;;;;10.00;1.00;;;;;;5049911;28;19909;-86
2024/01/23 11:40:42;;;;;;;;;;;9.20;1.00;;;;;;5054132;28;19915;-84
2024/01/23 11:43:22;;;;;;;;;;;9.40;1.00;;;;;;5053028;28;20275;-84
2024/01/23 11:46:14;;;;;;;;;;;9.40;1.00;;;;;;5043483;28;19909;-90
2024/01/23 11:48:56;;;;;;;;;;;9.40;1.00;;;;;;5053828;28;19940;-85
2024/01/23 11:51:22;;;;;;;;;;;9.50;1.00;;;;;;5040372;28;19988;-74
2024/01/23 11:53:55;;;;;;;;;;;9.50;1.00;;;;;;5045442;28;19905;-74
2024/01/23 11:56:22;;;;;;;;;;;9.60;1.00;;;;;;5030850;28;19952;-75
2024/01/23 11:58:58;;;;;;;;;;;9.60;1.00;;;;;;5041658;28;19929;-75
2024/01/23 12:04:32;;;;;;;;;;;;;;;;;;5038012;28;19915;-79
2024/01/23 12:13:23;;;;;;;;;;;9.60;1.00;;;;;;5049749;28;19912;-78
2024/01/23 12:18:55;;;;;;;;;;;9.40;1.00;;;;;;5033710;28;19994;-78
2024/01/23 12:24:24;;;;;;;;;;;9.50;1.00;;;;;;5037374;28;19912;-78
2024/01/23 12:30:14;;;;;;;;;;;9.40;1.00;;;;;;5045317;28;19950;-78
2024/01/23 12:32:50;;;;;;;;;;;9.50;1.00;;;;;;5050811;28;19909;-75
2024/01/23 12:35:16;;;;;;;;;;;9.50;1.00;;;;;;5038871;28;19920;-75
2024/01/23 12:37:45;;;;;;;;;;;9.50;1.00;;;;;;5043078;28;19909;-75
2024/01/23 12:40:13;;;;;;;;;;;9.50;1.00;;;;;;5045000;28;19912;-75
2024/01/23 12:45:56;;;;;;;;;;;9.60;1.00;;;;;;5034910;28;19951;-74
2024/01/23 12:48:22;;;;;;;;;;;9.60;1.00;;;;;;5049013;28;19905;-76
2024/01/23 12:51:03;;;;;;;;;;;9.50;1.00;;;;;;5033703;28;19912;-75
2024/01/23 12:53:38;;;;;;;;;;;9.50;1.00;;;;;;5047105;28;19905;-75
2024/01/23 12:56:04;;;;;;;;;;;9.50;1.00;;;;;;5033696;28;19909;-75
2024/01/23 12:58:33;;;;;;;;;;;9.40;1.00;;;;;;5038836;28;19905;-75
2024/01/23 13:00:58;;;;;;;;;;;9.60;1.00;;;;;;5035070;28;19917;-75
2024/01/23 13:03:24;;;;;;;;;;;9.50;1.00;;;;;;5043634;28;20273;-75
2024/01/23 13:05:50;;;;;;;;;;;9.40;1.00;;;;;;5033418;28;19927;-74
2024/01/23 13:08:26;;;;;;;;;;;9.40;1.00;;;;;;5035825;28;19913;-74
2024/01/23 13:14:08;;;;;;;;;;;9.30;1.00;;;;;;5049805;28;20067;-75
2024/01/23 13:16:44;;;;;;;;;;;9.40;1.00;;;;;;5056968;28;20253;-76
2024/01/23 13:19:10;;;;;;;;;;;9.40;1.00;;;;;;5053829;28;19912;-75
2024/01/23 13:24:45;;;;;;;;;;;9.40;1.00;;;;;;5056866;28;19974;-75
2024/01/23 13:27:20;;;;;;;;;;;9.20;1.00;;;;;;5041356;28;20007;-76
2024/01/23 13:30:03;;;;;;;;;;;9.10;1.00;;;;;;5041909;28;19913;-74
2024/01/23 13:32:56;;;;;;;;;;;9.00;1.00;;;;;;5053882;28;19905;-77
2024/01/23 13:41:28;;;;;;;;;;;8.90;1.00;;;;;;5047274;28;20311;-77
2024/01/23 13:43:53;;;;;;;;;;;9.00;1.00;;;;;;5046409;28;19913;-76
2024/01/23 13:46:19;;;;;;;;;;;8.90;1.00;;;;;;5053344;28;19944;-76
2024/01/23 13:48:46;;;;;;;;;;;8.80;1.00;;;;;;5037639;28;20311;-74
2024/01/23 13:54:15;;;;;;;;;;;8.90;1.00;;;;;;5045990;28;20413;-76
2024/01/23 13:59:45;;;;;;;;;;;8.70;1.00;;;;;;5049285;28;20369;-77
2024/01/23 14:02:17;;;;;;;;;;;8.70;1.00;;;;;;5050996;28;20000;-74
2024/01/23 14:05:08;;;;;;;;;;;8.80;1.00;;;;;;5045081;28;19909;-74
2024/01/23 14:07:39;;;;;;;;;;;8.70;1.00;;;;;;5053413;28;19935;-73
2024/01/23 14:10:09;;;;;;;;;;;8.60;1.00;;;;;;5052401;28;19908;-74
2024/01/23 14:12:38;;;;;;;;;;;8.60;1.00;;;;;;5056528;28;19908;-74
2024/01/23 14:15:08;;;;;;;;;;;8.50;1.00;;;;;;5043531;28;19908;-75
2024/01/23 14:17:34;;;;;;;;;;;8.60;1.00;;;;;;5048053;28;19947;-74
2024/01/23 14:20:01;;;;;;;;;;;8.60;1.00;;;;;;5049209;28;19912;-74
2024/01/23 14:22:26;;;;;;;;;;;8.60;1.00;;;;;;5047166;28;19935;-73
2024/01/23 14:24:57;;;;;;;;;;;8.60;1.00;;;;;;5045284;28;19916;-74
2024/01/23 14:27:44;;;;;;;;;;;8.40;1.00;;;;;;5047907;28;20003;-74
2024/01/23 14:30:12;;;;;;;;;;;8.40;1.00;;;;;;5039824;28;19913;-75
2024/01/23 14:32:38;;;;;;;;;;;8.50;1.00;;;;;;5045607;28;20007;-74
2024/01/23 14:35:04;;;;;;;;;;;8.40;1.00;;;;;;5044667;28;19999;-74
2024/01/23 14:37:29;;;;;;;;;;;8.40;1.00;;;;;;5049229;28;19944;-73
2024/01/23 14:39:56;;;;;;;;;;;8.40;1.00;;;;;;5052054;28;19978;-74
2024/01/23 14:42:26;;;;;;;;;;;8.40;1.00;;;;;;5046144;28;19913;-74
2024/01/23 14:45:03;;;;;;;;;;;8.40;1.00;;;;;;5043187;28;19927;-73
2024/01/23 14:47:30;;;;;;;;;;;8.40;1.00;;;;;;5051777;28;19912;-73
2024/01/23 14:49:55;;;;;;;;;;;8.40;1.00;;;;;;5042208;28;20411;-74
2024/01/23 14:52:21;;;;;;;;;;;8.40;1.00;;;;;;5038658;28;19908;-74
2024/01/23 14:57:41;;;;;;;;;;;8.40;1.00;;;;;;5054366;28;19904;-74
2024/01/23 15:00:09;;;;;;;;;;;8.40;1.00;;;;;;5044767;28;19967;-74
2024/01/23 15:06:00;;;;;;;;;;;8.40;1.00;;;;;;5045093;28;19912;-77
2024/01/23 15:08:33;;;;;;;;;;;8.40;1.00;;;;;;5046390;28;19909;-77
2024/01/23 15:11:15;;;;;;;;;;;8.40;1.00;;;;;;5051549;28;19905;-77
2024/01/23 15:14:02;;;;;;;;;;;8.40;1.00;;;;;;5046329;28;19909;-77
2024/01/23 15:16:57;;;;;;;;;;;8.40;1.00;;;;;;5044690;28;19951;-77
2024/01/23 15:19:26;;;;;;;;;;;8.40;1.00;;;;;;5038181;28;20008;-77
2024/01/23 15:27:58;;;;;;;;;;;8.30;1.00;;;;;;5045329;28;20413;-78
2024/01/23 15:30:32;;;;;;;;;;;8.30;1.00;;;;;;5046846;28;19909;-79
2024/01/23 15:33:03;;;;;;;;;;;8.30;1.00;;;;;;5045049;28;19905;-73
2024/01/23 15:35:28;;;;;;;;;;;8.30;1.00;;;;;;5035946;28;19912;-74
2024/01/23 15:37:54;;;;;;;;;;;8.40;1.00;;;;;;5045872;28;19904;-74
2024/01/23 15:40:39;;;;;;;;;;;8.30;1.00;;;;;;5036447;28;19913;-74
2024/01/23 15:43:04;;;;;;;;;;;8.20;1.00;;;;;;5038674;28;19940;-75
2024/01/23 15:45:31;;;;;;;;;;;8.10;1.00;;;;;;5053353;28;19951;-74
2024/01/23 15:47:57;;;;;;;;;;;8.10;1.00;;;;;;5052888;28;19959;-82
2024/01/23 15:50:26;;;;;;;;;;;8.20;1.00;;;;;;5037074;28;20380;-83
2024/01/23 15:56:14;;;;;;;;;;;8.10;1.00;;;;;;5038009;28;19915;-80
2024/01/23 16:01:45;;;;;;;;;;;8.20;1.00;;;;;;5033666;28;20285;-81
2024/01/23 16:07:14;;;;;;;;;;;8.20;1.00;;;;;;5034023;28;20371;-83
2024/01/23 16:09:45;;;;;;;;;;;8.30;1.00;;;;;;5052749;28;19995;-83
2024/01/23 16:12:34;;;;;;;;;;;8.20;1.00;;;;;;5043123;28;19955;-78
2024/01/23 16:15:00;;;;;;;;;;;8.10;1.00;;;;;;5043233;28;19909;-83
2024/01/23 16:17:39;;;;;;;;;;;8.10;1.00;;;;;;5048831;28;20331;-82
2024/01/23 16:20:05;;;;;;;;;;;8.20;1.00;;;;;;5060921;28;19908;-80
2024/01/23 16:22:38;;;;;;;;;;;8.10;1.00;;;;;;5047679;28;19951;-79
2024/01/23 16:28:07;;;;;;;;;;;8.10;1.00;;;;;;5040207;28;19911;-79
2024/01/23 16:30:40;;;;;;;;;;;8.00;1.00;;;;;;5041564;28;19964;-81
2024/01/23 16:36:39;;;;;;;;;;;8.00;1.00;;;;;;5040368;28;19916;-80
2024/01/23 16:42:08;;;;;;;;;;;8.00;1.00;;;;;;5034303;28;20327;-78
2024/01/23 16:47:37;;;;;;;;;;;7.90;1.00;;;;;;5050766;28;19936;-81
2024/01/23 16:50:21;;;;;;;;;;;8.00;1.00;;;;;;5057026;28;19909;-81
2024/01/23 16:55:49;;;;;;;;;;;7.90;1.00;;;;;;5048019;28;19935;-82
2024/01/23 17:01:18;;;;;;;;;;;7.90;1.00;;;;;;5037019;28;19955;-75
2024/01/23 17:03:43;;;;;;;;;;;7.90;1.00;;;;;;5047530;28;19912;-75
2024/01/23 17:06:15;;;;;;;;;;;7.80;1.00;;;;;;5039210;28;20384;-75
2024/01/23 17:17:49;;;;;;;;;;;7.80;1.00;;;;;;5042472;28;20379;-77
2024/01/23 17:26:20;;;;;;;;;;;7.80;1.00;;;;;;5052751;28;20271;-79
2024/01/23 17:37:55;;;;;;;;;;;7.70;1.00;;;;;;5050176;28;19916;-76
2024/01/23 17:40:39;;;;;;;;;;;7.70;1.00;;;;;;5036786;28;19912;-79
2024/01/23 17:49:10;;;;;;;;;;;7.70;1.00;;;;;;5038399;28;19942;-79
2024/01/23 17:51:57;;;;;;;;;;;7.70;1.00;;;;;;5036327;28;19909;-80
2024/01/23 17:54:51;;;;;;;;;;;7.70;1.00;;;;;;5042029;28;19995;-78
2024/01/23 17:57:17;;;;;;;;;;;;;;;;;;5038485;28;19948;-77
2024/01/23 17:59:42;;;;;;;;;;;7.70;1.00;;;;;;5051404;28;19982;-78
2024/01/23 18:02:27;;;;;;;;;;;7.60;3.80;;;;;;5043762;28;20360;-78
2024/01/23 18:04:52;;;;;;;;;;;7.60;5.10;;;;;;5055909;28;19955;-79
2024/01/23 18:07:18;;;;;;;;;;;7.70;7.90;;;;;;5050955;28;19909;-80
2024/01/23 18:15:50;;;;;;;;;;;7.60;5.90;;;;;;5045342;28;19912;-78
2024/01/23 18:21:39;;;;;;;;;;;7.60;10.70;;;;;;5055699;28;19965;-77
2024/01/23 18:27:07;;;;;;;;;;;7.60;13.60;;;;;;5046017;28;19967;-77
2024/01/23 18:32:36;;;;;;;;;;;7.60;17.80;;;;;;5035285;28;20036;-76
2024/01/23 18:35:01;;;;;;;;;;;7.60;17.70;;;;;;5044288;28;19946;-74
2024/01/23 18:37:27;;;;;;;;;;;7.60;16.50;;;;;;5039984;28;19909;-77
2024/01/23 18:40:03;;;;;;;;;;;7.50;15.80;;;;;;5059298;28;19912;-75
2024/01/23 18:42:39;;;;;;;;;;;7.60;19.20;;;;;;5040821;28;19944;-74
2024/01/23 18:45:04;;;;;;;;;;;7.60;18.00;;;;;;5043318;28;19916;-75
2024/01/23 18:47:30;;;;;;;;;;;7.60;19.60;;;;;;5047326;28;19909;-74
2024/01/23 18:50:04;;;;;;;;;;;7.50;14.60;;;;;;5043769;28;20352;-74
2024/01/23 18:58:36;;;;;;;;;;;7.50;24.10;;;;;;5043877;28;19955;-76
2024/01/23 19:04:09;;;;;;;;;;;7.40;27.30;;;;;;5054853;28;20016;-83
2024/01/23 19:07:09;;;;;;;;;;;7.40;32.80;;;;;;5053833;28;19940;-86
2024/01/23 19:09:45;;;;;;;;;;;7.30;40.50;;;;;;5039952;28;19912;-84
2024/01/23 19:12:15;;;;;;;;;;;7.30;40.50;;;;;;5039229;28;19909;-81
2024/01/23 19:14:42;;;;;;;;;;;7.30;40.50;;;;;;5035861;28;20359;-82
2024/01/23 19:17:45;;;;;;;;;;;7.20;37.30;;;;;;5045200;28;19909;-78
2024/01/23 19:20:22;;;;;;;;;;;7.20;40.60;;;;;;5034374;28;20344;-78
2024/01/23 19:22:48;;;;;;;;;;;7.10;40.40;;;;;;5046565;28;20240;-75
2024/01/23 19:25:14;;;;;;;;;;;7.20;37.30;;;;;;5040781;28;19909;-74
2024/01/23 19:27:57;;;;;;;;;;;7.20;40.60;;;;;;5040672;28;19919;-74
2024/01/23 19:30:27;;;;;;;;;;;7.30;37.40;;;;;;5042561;28;19946;-74
2024/01/23 19:32:57;;;;;;;;;;;7.30;40.70;;;;;;5052882;28;19916;-74
2024/01/23 19:35:27;;;;;;;;;;;7.40;37.50;;;;;;5045362;28;19909;-74
2024/01/23 19:38:15;;;;;;;;;;;7.40;40.70;;;;;;5054316;28;20042;-78
2024/01/23 19:40:40;;;;;;;;;;;7.40;37.50;;;;;;5048738;28;19960;-77
2024/01/23 19:49:21;;;;;;;;;;;7.30;40.50;;;;;;5035535;28;20397;-78
2024/01/23 19:51:51;;;;;;;;;;;7.30;37.40;;;;;;5039808;28;19913;-78
2024/01/23 19:54:17;;;;;;;;;;;7.30;40.70;;;;;;5035838;28;19912;-78
2024/01/23 19:56:46;;;;;;;;;;;7.30;40.80;;;;;;5049501;28;20370;-78
2024/01/23 19:59:32;;;;;;;;;;;7.20;37.30;;;;;;5033895;28;19960;-78
2024/01/23 20:05:01;;;;;;;;;;;7.10;37.20;;;;;;5034085;28;20039;-78
2024/01/23 20:07:39;;;;;;;;;;;7.20;40.60;;;;;;5034618;28;19945;-78
2024/01/23 20:13:07;;;;;;;;;;;7.10;37.20;;;;;;5033858;28;20318;-79
2024/01/23 20:18:36;;;;;;;;;;;7.10;40.40;;;;;;5036788;28;19952;-78
2024/01/23 20:21:02;;;;;;;;;;;7.10;37.20;;;;;;5051266;28;19908;-75
2024/01/23 20:23:27;;;;;;;;;;;7.10;40.90;;;;;;5042172;28;19909;-74
2024/01/23 20:25:57;;;;;;;;;;;7.10;37.20;;;;;;5044693;28;19904;-74
2024/01/23 20:28:22;;;;;;;;;;;7.10;37.20;;;;;;5037740;28;19947;-74
2024/01/23 20:30:51;;;;;;;;;;;7.20;41.00;;;;;;5037650;28;19909;-74
2024/01/23 20:33:27;;;;;;;;;;;7.20;37.30;;;;;;5038011;28;19915;-74
2024/01/23 20:36:15;;;;;;;;;;;7.20;40.60;;;;;;5053040;28;19905;-74
2024/01/23 20:38:41;;;;;;;;;;;7.30;40.60;;;;;;5039808;28;20359;-74
2024/01/23 20:41:06;;;;;;;;;;;7.30;40.70;;;;;;5049136;28;19942;-75
2024/01/23 20:43:32;;;;;;;;;;;7.40;40.70;;;;;;5047541;28;20008;-74
2024/01/23 20:46:10;;;;;;;;;;;7.30;40.60;;;;;;5039373;28;19905;-74
2024/01/23 20:48:57;;;;;;;;;;;7.30;40.60;;;;;;5050255;28;20002;-74